Time;durP1;ratioP1;P1;durP2;ratioP2;P2;SDS_P1;SDS_P2;PMS_P1;PMS_P2;Temp;Humidity;BMP_temperature;BMP_pressure;BME280_temperature;BME280_humidity;BME280_pressure;Samples;Min_cycle;Max_cycle;Signal;HPM_P1;HPM_P2
2021/12/17 17:49:21;;;;;;;3.47;3.10;;;;;;;;;;5080809;27;20375;-83
2021/12/17 17:51:47;;;;;;;7.55;5.45;;;;;;;;;;5052604;28;20040;-80
2021/12/17 17:54:17;;;;;;;8.50;5.45;;;;;;;;;;5054495;28;20024;-81
2021/12/17 17:56:42;;;;;;;7.50;5.00;;;;;;;;;;5071398;28;20024;-80
2021/12/17 17:59:08;;;;;;;4.18;3.70;;;;;;;;;;5087160;28;20086;-82
2021/12/17 18:01:37;;;;;;;4.63;3.92;;;;;;;;;;5088906;28;20042;-82
2021/12/17 18:04:07;;;;;;;4.90;4.10;;;;;;;;;;5070817;28;20461;-83
2021/12/17 18:06:35;;;;;;;5.13;4.00;;;;;;;;;;5071974;28;20490;-82
2021/12/17 18:09:02;;;;;;;6.78;5.63;;;;;;;;;;5070308;28;20062;-81
2021/12/17 18:11:28;;;;;;;6.20;4.93;;;;;;;;;;5083197;28;20060;-81
2021/12/17 18:13:53;;;;;;;7.57;5.70;;;;;;;;;;5089241;28;20063;-82
2021/12/17 18:16:21;;;;;;;4.80;4.25;;;;;;;;;;5088513;28;20077;-87
2021/12/17 18:18:46;;;;;;;4.45;4.00;;;;;;;;;;5080362;28;20059;-81
2021/12/17 18:21:12;;;;;;;4.15;3.75;;;;;;;;;;5093951;28;20037;-83
2021/12/17 18:23:37;;;;;;;5.35;3.80;;;;;;;;;;5087404;28;20024;-81
2021/12/17 18:26:03;;;;;;;4.55;4.15;;;;;;;;;;5087196;28;20036;-80
2021/12/17 18:28:28;;;;;;;4.20;3.80;;;;;;;;;;5098349;28;20028;-79
2021/12/17 18:30:53;;;;;;;7.80;4.90;;;;;;;;;;5080060;28;20028;-80
2021/12/17 18:33:19;;;;;;;8.18;6.63;;;;;;;;;;5066462;28;20402;-80
2021/12/17 18:35:45;;;;;;;9.43;7.30;;;;;;;;;;5067209;28;20021;-79
2021/12/17 18:38:10;;;;;;;5.35;4.00;;;;;;;;;;5066703;28;20462;-80
2021/12/17 18:40:42;;;;;;;17.20;13.70;;;;;;;;;;5068020;28;20044;-79
2021/12/17 18:44:10;;;;;;;7.40;5.55;;;;;;;;;;5065835;28;20174;-80
2021/12/17 18:46:03;;;;;;;5.00;3.97;;;;;;;;;;5063158;28;20032;-80
2021/12/17 18:48:29;;;;;;;6.50;4.68;;;;;;;;;;5064883;28;20046;-80
2021/12/17 18:50:55;;;;;;;5.97;4.65;;;;;;;;;;5065114;28;20032;-80
2021/12/17 18:53:21;;;;;;;5.43;4.55;;;;;;;;;;5066442;28;20024;-80
2021/12/17 18:55:46;;;;;;;7.93;5.80;;;;;;;;;;5005139;28;20045;-79
2021/12/17 18:58:12;;;;;;;7.32;5.40;;;;;;;;;;5004040;28;20032;-81
2021/12/17 19:00:41;;;;;;;8.27;5.32;;;;;;;;;;4995336;28;20500;-80
2021/12/17 19:03:07;;;;;;;6.93;5.38;;;;;;;;;;4995300;28;20026;-81
2021/12/17 19:05:33;;;;;;;5.57;4.50;;;;;;;;;;5009824;28;20034;-81
2021/12/17 19:07:58;;;;;;;13.40;7.80;;;;;;;;;;4991147;28;20030;-84
2021/12/17 19:10:24;;;;;;;7.50;6.22;;;;;;;;;;5010051;28;20049;-78
2021/12/17 19:12:51;;;;;;;7.55;5.55;;;;;;;;;;4996010;28;20108;-78
2021/12/17 19:15:17;;;;;;;10.68;7.05;;;;;;;;;;4996812;28;20491;-77
2021/12/17 19:17:42;;;;;;;11.20;7.97;;;;;;;;;;5012205;28;20030;-78
2021/12/17 19:20:17;;;;;;;8.90;6.65;;;;;;;;;;5011692;28;20402;-78
2021/12/17 19:22:48;;;;;;;6.68;5.65;;;;;;;;;;4995155;28;20117;-77
2021/12/17 19:25:15;;;;;;;11.48;5.40;;;;;;;;;;4995268;28;20033;-78
2021/12/17 19:27:42;;;;;;;7.20;6.05;;;;;;;;;;5011873;28;20402;-78
2021/12/17 19:30:10;;;;;;;8.93;6.03;;;;;;;;;;4996371;28;20057;-78
2021/12/17 19:32:35;;;;;;;6.63;5.38;;;;;;;;;;5011353;28;20030;-79
2021/12/17 19:35:02;;;;;;;7.80;6.10;;;;;;;;;;4996635;28;20041;-78
2021/12/17 19:37:28;;;;;;;7.90;6.15;;;;;;;;;;4996549;28;20041;-78
2021/12/17 19:39:53;;;;;;;7.00;5.70;;;;;;;;;;4994886;28;20034;-79
2021/12/17 19:42:19;;;;;;;6.20;5.00;;;;;;;;;;5011476;28;20026;-78
2021/12/17 19:44:45;;;;;;;6.53;5.38;;;;;;;;;;4995960;28;20034;-78
2021/12/17 19:52:03;;;;;;;6.00;4.93;;;;;;;;;;5011248;28;20409;-78
2021/12/17 19:54:29;;;;;;;8.57;4.90;;;;;;;;;;5010924;28;20035;-78
2021/12/17 19:56:54;;;;;;;6.40;4.50;;;;;;;;;;4994686;28;20033;-76
2021/12/17 19:59:19;;;;;;;6.32;5.00;;;;;;;;;;5011074;28;20034;-79
2021/12/17 20:01:45;;;;;;;5.70;4.95;;;;;;;;;;5011917;28;20037;-79
2021/12/17 20:04:11;;;;;;;5.80;4.65;;;;;;;;;;4995662;28;20093;-78
2021/12/17 20:06:43;;;;;;;6.18;4.85;;;;;;;;;;5010854;28;20389;-78
2021/12/17 20:09:10;;;;;;;6.38;4.55;;;;;;;;;;4995919;28;20030;-78
2021/12/17 20:11:38;;;;;;;5.07;4.30;;;;;;;;;;4977031;28;20132;-78
2021/12/17 20:14:04;;;;;;;5.30;4.38;;;;;;;;;;4994372;28;20030;-78
2021/12/17 20:16:30;;;;;;;4.38;3.97;;;;;;;;;;4995433;28;20392;-78
2021/12/17 20:18:55;;;;;;;5.53;4.55;;;;;;;;;;5010383;28;20038;-78
2021/12/17 20:21:21;;;;;;;6.00;4.75;;;;;;;;;;5010525;28;20042;-78
2021/12/17 20:23:46;;;;;;;5.60;4.88;;;;;;;;;;5010673;28;20062;-78
2021/12/17 20:26:12;;;;;;;5.72;5.03;;;;;;;;;;4993930;28;20121;-78
2021/12/17 20:28:39;;;;;;;5.93;5.30;;;;;;;;;;4993943;28;20041;-78
2021/12/17 20:31:06;;;;;;;8.25;5.43;;;;;;;;;;4993967;28;20088;-79
2021/12/17 20:33:32;;;;;;;8.55;5.00;;;;;;;;;;5010192;28;20478;-78
2021/12/17 20:35:58;;;;;;;5.88;4.70;;;;;;;;;;4995725;28;20081;-78
2021/12/17 20:38:24;;;;;;;7.00;4.80;;;;;;;;;;4995036;28;20117;-78
2021/12/17 20:40:49;;;;;;;5.05;4.38;;;;;;;;;;5009998;28;20108;-78
2021/12/17 20:43:19;;;;;;;5.93;4.93;;;;;;;;;;4993659;28;20542;-78
2021/12/17 20:45:45;;;;;;;5.55;4.50;;;;;;;;;;5010062;28;20034;-77
2021/12/17 20:48:12;;;;;;;4.57;4.13;;;;;;;;;;4994531;28;20054;-78
2021/12/17 20:50:39;;;;;;;5.07;4.25;;;;;;;;;;4994749;28;20053;-77
2021/12/17 20:53:08;;;;;;;6.55;4.43;;;;;;;;;;4993502;28;20057;-78
2021/12/17 20:55:35;;;;;;;6.05;4.70;;;;;;;;;;4995104;28;20062;-77
2021/12/17 20:58:01;;;;;;;5.22;4.50;;;;;;;;;;4993378;28;20062;-77
2021/12/17 21:00:28;;;;;;;4.13;3.72;;;;;;;;;;4993366;28;20034;-78
2021/12/17 21:02:56;;;;;;;4.60;3.90;;;;;;;;;;4993897;28;20106;-77
2021/12/17 21:05:22;;;;;;;6.07;4.07;;;;;;;;;;5009929;28;20042;-78
2021/12/17 21:07:48;;;;;;;7.75;4.50;;;;;;;;;;4995487;28;20030;-78
2021/12/17 21:10:15;;;;;;;4.40;4.00;;;;;;;;;;4994459;28;20072;-78
2021/12/17 21:12:41;;;;;;;4.47;3.70;;;;;;;;;;4997918;28;20030;-78
2021/12/17 21:15:10;;;;;;;5.88;4.03;;;;;;;;;;5009748;28;20363;-77
2021/12/17 21:17:37;;;;;;;5.40;4.50;;;;;;;;;;5009436;28;20371;-78
2021/12/17 21:20:11;;;;;;;5.18;4.40;;;;;;;;;;4994743;28;20065;-77
2021/12/17 21:22:37;;;;;;;3.95;3.55;;;;;;;;;;5009519;28;20413;-78
2021/12/17 21:25:04;;;;;;;4.45;3.72;;;;;;;;;;5009699;28;20022;-78
2021/12/17 21:27:29;;;;;;;5.47;4.43;;;;;;;;;;5009621;28;20104;-78
2021/12/17 21:29:55;;;;;;;7.63;3.92;;;;;;;;;;4993075;28;20061;-78
2021/12/17 21:32:21;;;;;;;5.78;4.25;;;;;;;;;;4994371;28;20030;-78
2021/12/17 21:34:46;;;;;;;8.23;4.93;;;;;;;;;;5010084;28;20034;-78
2021/12/17 21:37:12;;;;;;;6.60;5.53;;;;;;;;;;5009418;28;20540;-78
2021/12/17 21:39:38;;;;;;;6.30;4.82;;;;;;;;;;5009799;28;20097;-77
2021/12/17 21:42:05;;;;;;;7.28;5.45;;;;;;;;;;5009409;28;20023;-78
2021/12/17 21:44:39;;;;;;;6.43;5.32;;;;;;;;;;4994081;28;20469;-77
2021/12/17 21:47:06;;;;;;;6.13;5.03;;;;;;;;;;5008048;28;20034;-78
2021/12/17 21:49:31;;;;;;;5.53;4.32;;;;;;;;;;5008802;28;20053;-78
2021/12/17 21:51:57;;;;;;;6.30;4.95;;;;;;;;;;5009207;28;20457;-78
2021/12/17 21:54:23;;;;;;;4.80;3.97;;;;;;;;;;4993597;28;20093;-78
2021/12/17 21:56:48;;;;;;;5.30;4.40;;;;;;;;;;4976184;28;20041;-78
2021/12/17 21:59:14;;;;;;;4.55;3.95;;;;;;;;;;5008398;28;20057;-78
2021/12/17 22:01:39;;;;;;;5.55;4.28;;;;;;;;;;5008743;28;20026;-77
2021/12/17 22:04:11;;;;;;;6.32;4.60;;;;;;;;;;4993299;28;20101;-77
2021/12/17 22:06:41;;;;;;;6.25;4.93;;;;;;;;;;5007716;28;20037;-77
2021/12/17 22:09:07;;;;;;;7.05;4.78;;;;;;;;;;5008486;28;20609;-77
2021/12/17 22:11:32;;;;;;;4.55;3.97;;;;;;;;;;4993117;28;20050;-77
2021/12/17 22:13:58;;;;;;;4.97;3.60;;;;;;;;;;4993598;28;20022;-77
2021/12/17 22:16:24;;;;;;;5.93;3.72;;;;;;;;;;4993252;28;20042;-76
2021/12/17 22:18:50;;;;;;;5.47;3.80;;;;;;;;;;5008565;28;20041;-77
2021/12/17 22:21:19;;;;;;;3.90;3.20;;;;;;;;;;4991640;28;20121;-77
2021/12/17 22:23:44;;;;;;;3.95;3.55;;;;;;;;;;4992689;28;20462;-78
2021/12/17 22:26:10;;;;;;;4.43;3.47;;;;;;;;;;5009274;28;20034;-76
2021/12/17 22:28:36;;;;;;;4.50;3.75;;;;;;;;;;4991739;28;20477;-77
2021/12/17 22:31:01;;;;;;;4.38;3.58;;;;;;;;;;5008645;28;20077;-79
2021/12/17 22:33:26;;;;;;;3.67;3.38;;;;;;;;;;5008412;28;20161;-78
2021/12/17 22:35:52;;;;;;;5.55;4.13;;;;;;;;;;5011802;28;20030;-78
2021/12/17 22:38:17;;;;;;;4.95;4.10;;;;;;;;;;4996593;28;20106;-78
2021/12/17 22:41:02;;;;;;;4.35;3.92;;;;;;;;;;4996994;28;20030;-79
2021/12/17 22:43:28;;;;;;;4.80;3.90;;;;;;;;;;5009601;28;20019;-78
2021/12/17 22:45:54;;;;;;;4.88;3.60;;;;;;;;;;4996759;28;20373;-78
2021/12/17 22:48:20;;;;;;;4.53;3.90;;;;;;;;;;5011594;28;20072;-78
2021/12/17 22:50:46;;;;;;;4.43;3.45;;;;;;;;;;4996372;28;20038;-78
2021/12/17 22:53:11;;;;;;;5.15;3.53;;;;;;;;;;4995303;28;20049;-77
2021/12/17 22:55:37;;;;;;;5.00;4.13;;;;;;;;;;5011742;28;20022;-78
2021/12/17 22:58:04;;;;;;;4.65;3.70;;;;;;;;;;4997082;28;20031;-77
2021/12/17 23:00:43;;;;;;;3.35;2.92;;;;;;;;;;5011595;28;20037;-79
2021/12/17 23:03:09;;;;;;;5.60;3.55;;;;;;;;;;4996882;28;20026;-77
2021/12/17 23:05:34;;;;;;;4.90;3.50;;;;;;;;;;4996888;28;20040;-78
2021/12/17 23:08:09;;;;;;;3.67;3.28;;;;;;;;;;4996680;28;20058;-78
2021/12/17 23:10:36;;;;;;;4.28;3.28;;;;;;;;;;4995733;28;20117;-78
2021/12/17 23:13:02;;;;;;;3.33;3.00;;;;;;;;;;4995519;28;20045;-78
2021/12/17 23:15:28;;;;;;;3.88;3.10;;;;;;;;;;5012367;28;20497;-76
